sensor_id;sensor_type;location;lat;lon;timestamp;pressure;altitude;pressure_sealevel;temperature;humidity
10958;BME280;5531;42.570;23.676;2023-02-18T00:02:03;92684.59;;;6.45;53.41
10958;BME280;5531;42.570;23.676;2023-02-18T00:04:35;92684.75;;;6.43;53.98
10958;BME280;5531;42.570;23.676;2023-02-18T00:07:04;92681.66;;;6.39;54.53
10958;BME280;5531;42.570;23.676;2023-02-18T00:09:32;92674.63;;;6.32;54.46
10958;BME280;5531;42.570;23.676;2023-02-18T00:12:02;92679.00;;;6.31;57.47
10958;BME280;5531;42.570;23.676;2023-02-18T00:14:31;92663.34;;;6.23;55.64
10958;BME280;5531;42.570;23.676;2023-02-18T00:17:00;92672.88;;;6.14;57.45
10958;BME280;5531;42.570;23.676;2023-02-18T00:19:29;92669.78;;;6.11;57.52
10958;BME280;5531;42.570;23.676;2023-02-18T00:22:00;92659.97;;;6.04;56.94
10958;BME280;5531;42.570;23.676;2023-02-18T00:24:29;92667.41;;;5.99;58.15
10958;BME280;5531;42.570;23.676;2023-02-18T00:26:58;92655.31;;;5.90;58.83
10958;BME280;5531;42.570;23.676;2023-02-18T00:29:27;92660.00;;;5.86;57.29
10958;BME280;5531;42.570;23.676;2023-02-18T00:31:56;92644.19;;;5.80;57.93
10958;BME280;5531;42.570;23.676;2023-02-18T00:34:25;92640.13;;;5.77;57.85
10958;BME280;5531;42.570;23.676;2023-02-18T00:36:54;92632.78;;;5.73;58.32
10958;BME280;5531;42.570;23.676;2023-02-18T00:39:26;92618.13;;;5.72;58.42
10958;BME280;5531;42.570;23.676;2023-02-18T00:41:55;92611.97;;;5.73;58.48
10958;BME280;5531;42.570;23.676;2023-02-18T00:44:24;92603.81;;;5.67;58.06
10958;BME280;5531;42.570;23.676;2023-02-18T00:46:53;92614.53;;;5.64;59.25
10958;BME280;5531;42.570;23.676;2023-02-18T00:49:21;92611.94;;;5.64;58.67
10958;BME280;5531;42.570;23.676;2023-02-18T00:51:50;92605.53;;;5.59;58.64
10958;BME280;5531;42.570;23.676;2023-02-18T00:54:19;92608.06;;;5.50;58.40
10958;BME280;5531;42.570;23.676;2023-02-18T00:56:51;92607.22;;;5.42;57.37
10958;BME280;5531;42.570;23.676;2023-02-18T00:59:20;92609.31;;;5.38;57.53
10958;BME280;5531;42.570;23.676;2023-02-18T01:01:49;92601.94;;;5.33;58.11
10958;BME280;5531;42.570;23.676;2023-02-18T01:04:18;92599.88;;;5.37;58.12
10958;BME280;5531;42.570;23.676;2023-02-18T01:06:47;92601.06;;;5.43;57.22
10958;BME280;5531;42.570;23.676;2023-02-18T01:09:17;92604.81;;;5.48;57.19
10958;BME280;5531;42.570;23.676;2023-02-18T01:11:46;92606.00;;;5.54;57.13
10958;BME280;5531;42.570;23.676;2023-02-18T01:14:17;92608.28;;;5.57;56.70
10958;BME280;5531;42.570;23.676;2023-02-18T01:16:46;92608.44;;;5.56;57.17
10958;BME280;5531;42.570;23.676;2023-02-18T01:19:15;92605.69;;;5.57;56.79
10958;BME280;5531;42.570;23.676;2023-02-18T01:21:44;92604.44;;;5.61;56.39
10958;BME280;5531;42.570;23.676;2023-02-18T01:24:13;92609.72;;;5.51;57.46
10958;BME280;5531;42.570;23.676;2023-02-18T01:26:42;92607.63;;;5.55;57.23
10958;BME280;5531;42.570;23.676;2023-02-18T01:29:11;92603.25;;;5.56;57.21
10958;BME280;5531;42.570;23.676;2023-02-18T01:31:43;92602.94;;;5.59;57.09
10958;BME280;5531;42.570;23.676;2023-02-18T01:34:12;92604.38;;;5.53;57.94
10958;BME280;5531;42.570;23.676;2023-02-18T01:36:41;92601.22;;;5.41;59.02
10958;BME280;5531;42.570;23.676;2023-02-18T01:39:10;92603.41;;;5.36;59.62
10958;BME280;5531;42.570;23.676;2023-02-18T01:41:39;92593.94;;;5.27;60.93
10958;BME280;5531;42.570;23.676;2023-02-18T01:44:16;92591.94;;;5.21;62.02
10958;BME280;5531;42.570;23.676;2023-02-18T01:46:48;92590.94;;;5.13;61.20
10958;BME280;5531;42.570;23.676;2023-02-18T01:49:20;92596.19;;;5.04;60.45
10958;BME280;5531;42.570;23.676;2023-02-18T01:51:53;92594.91;;;4.90;61.69
10958;BME280;5531;42.570;23.676;2023-02-18T01:54:27;92599.53;;;4.96;59.98
10958;BME280;5531;42.570;23.676;2023-02-18T01:57:00;92599.22;;;4.99;59.57
10958;BME280;5531;42.570;23.676;2023-02-18T01:59:32;92596.13;;;4.95;61.56
10958;BME280;5531;42.570;23.676;2023-02-18T02:02:07;92607.31;;;4.96;61.62
10958;BME280;5531;42.570;23.676;2023-02-18T02:04:37;92604.63;;;4.88;62.53
10958;BME280;5531;42.570;23.676;2023-02-18T02:07:07;92609.69;;;4.89;61.44
10958;BME280;5531;42.570;23.676;2023-02-18T02:09:38;92611.84;;;4.94;60.04
10958;BME280;5531;42.570;23.676;2023-02-18T02:12:24;92606.81;;;4.92;59.95
10958;BME280;5531;42.570;23.676;2023-02-18T02:15:09;92608.56;;;4.92;59.96
10958;BME280;5531;42.570;23.676;2023-02-18T02:17:57;92602.41;;;4.93;60.08
10958;BME280;5531;42.570;23.676;2023-02-18T02:20:52;92595.56;;;4.92;61.66
10958;BME280;5531;42.570;23.676;2023-02-18T02:32:52;92610.94;;;4.85;61.71
10958;BME280;5531;42.570;23.676;2023-02-18T02:35:32;92610.28;;;4.83;61.09
10958;BME280;5531;42.570;23.676;2023-02-18T02:38:05;92606.66;;;4.76;62.32
10958;BME280;5531;42.570;23.676;2023-02-18T02:40:40;92605.28;;;4.72;63.31
10958;BME280;5531;42.570;23.676;2023-02-18T02:43:17;92591.13;;;4.66;65.00
10958;BME280;5531;42.570;23.676;2023-02-18T02:45:53;92601.13;;;4.61;65.12
10958;BME280;5531;42.570;23.676;2023-02-18T02:48:44;92600.00;;;4.64;64.03
10958;BME280;5531;42.570;23.676;2023-02-18T02:51:20;92598.22;;;4.64;62.72
10958;BME280;5531;42.570;23.676;2023-02-18T02:53:51;92592.09;;;4.65;62.75
10958;BME280;5531;42.570;23.676;2023-02-18T02:56:22;92591.94;;;4.67;63.40
10958;BME280;5531;42.570;23.676;2023-02-18T02:58:58;92590.66;;;4.71;61.88
10958;BME280;5531;42.570;23.676;2023-02-18T03:01:36;92589.56;;;4.73;61.96
10958;BME280;5531;42.570;23.676;2023-02-18T03:04:22;92596.56;;;4.73;61.35
10958;BME280;5531;42.570;23.676;2023-02-18T03:07:26;92597.66;;;4.70;61.77
10958;BME280;5531;42.570;23.676;2023-02-18T03:10:13;92602.19;;;4.68;61.93
10958;BME280;5531;42.570;23.676;2023-02-18T03:12:49;92598.28;;;4.54;64.14
10958;BME280;5531;42.570;23.676;2023-02-18T03:15:25;92595.19;;;4.51;62.38
10958;BME280;5531;42.570;23.676;2023-02-18T03:18:01;92597.25;;;4.47;64.67
10958;BME280;5531;42.570;23.676;2023-02-18T03:20:35;92595.13;;;4.33;64.92
10958;BME280;5531;42.570;23.676;2023-02-18T03:23:10;92590.44;;;4.18;65.93
10958;BME280;5531;42.570;23.676;2023-02-18T03:25:43;92595.03;;;4.25;65.58
10958;BME280;5531;42.570;23.676;2023-02-18T03:28:14;92606.38;;;4.23;65.53
10958;BME280;5531;42.570;23.676;2023-02-18T03:30:47;92606.69;;;4.20;66.57
10958;BME280;5531;42.570;23.676;2023-02-18T03:33:25;92609.66;;;4.26;66.25
10958;BME280;5531;42.570;23.676;2023-02-18T03:35:55;92616.84;;;4.32;64.21
10958;BME280;5531;42.570;23.676;2023-02-18T03:38:30;92629.00;;;4.31;63.40
10958;BME280;5531;42.570;23.676;2023-02-18T03:41:01;92623.66;;;4.33;63.00
10958;BME280;5531;42.570;23.676;2023-02-18T03:43:30;92631.59;;;4.31;62.58
10958;BME280;5531;42.570;23.676;2023-02-18T03:46:00;92630.78;;;4.31;62.63
10958;BME280;5531;42.570;23.676;2023-02-18T03:48:30;92634.94;;;4.14;65.58
10958;BME280;5531;42.570;23.676;2023-02-18T03:50:59;92636.72;;;4.13;65.09
10958;BME280;5531;42.570;23.676;2023-02-18T03:53:30;92633.47;;;4.11;66.63
10958;BME280;5531;42.570;23.676;2023-02-18T03:55:59;92629.16;;;3.92;66.16
10958;BME280;5531;42.570;23.676;2023-02-18T03:58:28;92644.69;;;3.92;67.24
10958;BME280;5531;42.570;23.676;2023-02-18T04:00:58;92639.13;;;3.87;65.84
10958;BME280;5531;42.570;23.676;2023-02-18T04:03:27;92645.53;;;3.83;65.43
10958;BME280;5531;42.570;23.676;2023-02-18T04:05:56;92645.53;;;3.83;65.82
10958;BME280;5531;42.570;23.676;2023-02-18T04:08:25;92642.00;;;3.84;65.66
10958;BME280;5531;42.570;23.676;2023-02-18T04:10:57;92640.78;;;3.78;65.74
10958;BME280;5531;42.570;23.676;2023-02-18T04:13:26;92642.13;;;3.82;66.05
10958;BME280;5531;42.570;23.676;2023-02-18T04:15:55;92632.63;;;3.73;66.10
10958;BME280;5531;42.570;23.676;2023-02-18T04:18:25;92631.78;;;3.82;65.68
10958;BME280;5531;42.570;23.676;2023-02-18T04:20:54;92627.56;;;3.81;65.88
10958;BME280;5531;42.570;23.676;2023-02-18T04:23:23;92624.25;;;3.89;65.48
10958;BME280;5531;42.570;23.676;2023-02-18T04:25:52;92615.41;;;3.82;66.07
10958;BME280;5531;42.570;23.676;2023-02-18T04:28:23;92623.97;;;3.92;65.07
10958;BME280;5531;42.570;23.676;2023-02-18T04:30:52;92629.00;;;3.94;65.54
10958;BME280;5531;42.570;23.676;2023-02-18T04:33:21;92619.97;;;4.08;65.18
10958;BME280;5531;42.570;23.676;2023-02-18T04:35:50;92622.28;;;4.11;64.82
10958;BME280;5531;42.570;23.676;2023-02-18T04:38:19;92633.69;;;4.18;65.23
10958;BME280;5531;42.570;23.676;2023-02-18T04:40:48;92620.03;;;4.26;64.75
10958;BME280;5531;42.570;23.676;2023-02-18T04:43:17;92622.47;;;4.27;64.34
10958;BME280;5531;42.570;23.676;2023-02-18T04:45:49;92626.22;;;4.15;64.22
10958;BME280;5531;42.570;23.676;2023-02-18T04:48:18;92620.41;;;4.03;66.05
10958;BME280;5531;42.570;23.676;2023-02-18T04:50:48;92614.75;;;4.17;65.12
10958;BME280;5531;42.570;23.676;2023-02-18T04:53:17;92612.84;;;4.10;64.56
10958;BME280;5531;42.570;23.676;2023-02-18T04:55:49;92618.66;;;4.21;64.43
10958;BME280;5531;42.570;23.676;2023-02-18T04:58:18;92627.06;;;4.33;64.19
10958;BME280;5531;42.570;23.676;2023-02-18T05:00:50;92625.03;;;4.37;63.16
10958;BME280;5531;42.570;23.676;2023-02-18T05:03:20;92629.75;;;4.41;63.28
10958;BME280;5531;42.570;23.676;2023-02-18T05:05:49;92626.88;;;4.45;63.78
10958;BME280;5531;42.570;23.676;2023-02-18T05:08:18;92630.31;;;4.45;63.21
10958;BME280;5531;42.570;23.676;2023-02-18T05:10:47;92619.16;;;4.35;64.41
10958;BME280;5531;42.570;23.676;2023-02-18T05:13:16;92632.84;;;4.27;66.50
10958;BME280;5531;42.570;23.676;2023-02-18T05:15:45;92625.50;;;4.22;65.48
10958;BME280;5531;42.570;23.676;2023-02-18T05:18:17;92622.34;;;4.29;64.41
10958;BME280;5531;42.570;23.676;2023-02-18T05:20:46;92618.91;;;4.28;64.39
10958;BME280;5531;42.570;23.676;2023-02-18T05:23:15;92621.50;;;4.28;64.22
10958;BME280;5531;42.570;23.676;2023-02-18T05:25:46;92629.13;;;4.30;64.41
10958;BME280;5531;42.570;23.676;2023-02-18T05:28:15;92625.50;;;4.22;64.62
10958;BME280;5531;42.570;23.676;2023-02-18T05:30:44;92620.50;;;4.11;64.60
10958;BME280;5531;42.570;23.676;2023-02-18T05:33:13;92626.06;;;4.16;64.56
10958;BME280;5531;42.570;23.676;2023-02-18T05:35:45;92628.63;;;4.26;66.27
10958;BME280;5531;42.570;23.676;2023-02-18T05:38:14;92636.53;;;4.25;67.53
10958;BME280;5531;42.570;23.676;2023-02-18T05:40:43;92643.84;;;4.39;65.41
10958;BME280;5531;42.570;23.676;2023-02-18T05:43:12;92629.19;;;4.48;65.07
10958;BME280;5531;42.570;23.676;2023-02-18T05:45:41;92631.88;;;4.56;64.70
10958;BME280;5531;42.570;23.676;2023-02-18T05:48:10;92633.75;;;4.64;63.72
10958;BME280;5531;42.570;23.676;2023-02-18T05:50:40;92625.72;;;4.57;66.16
10958;BME280;5531;42.570;23.676;2023-02-18T05:53:11;92633.81;;;4.54;66.65
10958;BME280;5531;42.570;23.676;2023-02-18T05:55:40;92642.53;;;4.53;67.21
10958;BME280;5531;42.570;23.676;2023-02-18T05:58:09;92635.97;;;4.58;67.18
10958;BME280;5531;42.570;23.676;2023-02-18T06:00:38;92638.56;;;4.58;67.47
10958;BME280;5531;42.570;23.676;2023-02-18T06:03:07;92638.47;;;4.50;67.09
10958;BME280;5531;42.570;23.676;2023-02-18T06:05:36;92633.34;;;4.40;67.01
10958;BME280;5531;42.570;23.676;2023-02-18T06:08:05;92650.13;;;4.36;65.33
10958;BME280;5531;42.570;23.676;2023-02-18T06:10:39;92650.56;;;4.32;66.25
10958;BME280;5531;42.570;23.676;2023-02-18T06:13:08;92644.75;;;4.20;68.60
10958;BME280;5531;42.570;23.676;2023-02-18T06:15:37;92642.94;;;4.30;68.81
10958;BME280;5531;42.570;23.676;2023-02-18T06:18:07;92637.53;;;4.41;68.43
10958;BME280;5531;42.570;23.676;2023-02-18T06:20:36;92640.94;;;4.52;69.34
10958;BME280;5531;42.570;23.676;2023-02-18T06:23:06;92642.78;;;4.59;69.32
10958;BME280;5531;42.570;23.676;2023-02-18T06:25:38;92634.78;;;4.71;69.11
10958;BME280;5531;42.570;23.676;2023-02-18T06:28:08;92630.38;;;4.81;67.62
10958;BME280;5531;42.570;23.676;2023-02-18T06:30:37;92630.31;;;4.91;65.41
10958;BME280;5531;42.570;23.676;2023-02-18T06:33:06;92627.34;;;5.04;63.67
10958;BME280;5531;42.570;23.676;2023-02-18T06:35:35;92627.28;;;5.13;64.55
10958;BME280;5531;42.570;23.676;2023-02-18T06:38:04;92634.09;;;5.14;64.72
10958;BME280;5531;42.570;23.676;2023-02-18T06:40:33;92633.88;;;5.08;64.40
10958;BME280;5531;42.570;23.676;2023-02-18T06:43:04;92638.78;;;5.11;63.05
10958;BME280;5531;42.570;23.676;2023-02-18T06:45:33;92639.00;;;5.18;62.65
10958;BME280;5531;42.570;23.676;2023-02-18T06:48:03;92641.50;;;5.27;62.64
10958;BME280;5531;42.570;23.676;2023-02-18T06:50:32;92649.66;;;5.32;62.15
10958;BME280;5531;42.570;23.676;2023-02-18T06:53:01;92649.59;;;5.42;60.64
10958;BME280;5531;42.570;23.676;2023-02-18T06:55:30;92638.50;;;5.58;61.28
10958;BME280;5531;42.570;23.676;2023-02-18T06:57:59;92643.97;;;5.73;59.42
10958;BME280;5531;42.570;23.676;2023-02-18T07:00:30;92645.16;;;5.79;58.81
10958;BME280;5531;42.570;23.676;2023-02-18T07:03:00;92632.06;;;5.88;58.63
10958;BME280;5531;42.570;23.676;2023-02-18T07:05:29;92639.94;;;5.97;58.48
10958;BME280;5531;42.570;23.676;2023-02-18T07:07:58;92641.31;;;6.09;58.40
10958;BME280;5531;42.570;23.676;2023-02-18T07:10:27;92641.06;;;6.20;58.50
10958;BME280;5531;42.570;23.676;2023-02-18T07:12:56;92636.38;;;6.32;59.18
10958;BME280;5531;42.570;23.676;2023-02-18T07:15:25;92636.75;;;6.37;59.02
10958;BME280;5531;42.570;23.676;2023-02-18T07:17:57;92635.28;;;6.35;59.20
10958;BME280;5531;42.570;23.676;2023-02-18T07:20:27;92632.03;;;6.33;59.39
10958;BME280;5531;42.570;23.676;2023-02-18T07:22:56;92630.22;;;6.33;59.40
10958;BME280;5531;42.570;23.676;2023-02-18T07:25:25;92629.09;;;6.36;59.98
10958;BME280;5531;42.570;23.676;2023-02-18T07:27:54;92619.19;;;6.39;61.19
10958;BME280;5531;42.570;23.676;2023-02-18T07:30:23;92616.97;;;6.53;61.02
10958;BME280;5531;42.570;23.676;2023-02-18T07:32:52;92613.06;;;6.49;59.42
10958;BME280;5531;42.570;23.676;2023-02-18T07:35:24;92614.03;;;6.48;60.16
10958;BME280;5531;42.570;23.676;2023-02-18T07:37:53;92611.22;;;6.41;59.94
10958;BME280;5531;42.570;23.676;2023-02-18T07:40:22;92612.69;;;6.43;59.28
10958;BME280;5531;42.570;23.676;2023-02-18T07:42:51;92607.19;;;6.47;58.97
10958;BME280;5531;42.570;23.676;2023-02-18T07:45:20;92612.56;;;6.53;58.55
10958;BME280;5531;42.570;23.676;2023-02-18T07:47:49;92614.38;;;6.61;58.54
10958;BME280;5531;42.570;23.676;2023-02-18T07:50:19;92620.06;;;6.56;58.12
10958;BME280;5531;42.570;23.676;2023-02-18T07:52:51;92615.69;;;6.57;59.32
10958;BME280;5531;42.570;23.676;2023-02-18T07:55:20;92614.22;;;6.63;58.18
10958;BME280;5531;42.570;23.676;2023-02-18T07:57:48;92619.47;;;6.71;57.65
10958;BME280;5531;42.570;23.676;2023-02-18T08:00:28;92631.50;;;6.64;57.33
10958;BME280;5531;42.570;23.676;2023-02-18T08:02:57;92627.91;;;6.65;57.51
10958;BME280;5531;42.570;23.676;2023-02-18T08:05:26;92636.38;;;6.58;57.00
10958;BME280;5531;42.570;23.676;2023-02-18T08:07:58;92632.75;;;6.51;57.49
10958;BME280;5531;42.570;23.676;2023-02-18T08:10:27;92633.75;;;6.58;58.17
10958;BME280;5531;42.570;23.676;2023-02-18T08:12:56;92633.59;;;6.60;57.42
10958;BME280;5531;42.570;23.676;2023-02-18T08:15:25;92631.66;;;6.62;58.13
10958;BME280;5531;42.570;23.676;2023-02-18T08:17:54;92635.03;;;6.54;57.88
10958;BME280;5531;42.570;23.676;2023-02-18T08:20:23;92630.66;;;6.63;58.85
10958;BME280;5531;42.570;23.676;2023-02-18T08:22:52;92631.06;;;6.85;57.84
10958;BME280;5531;42.570;23.676;2023-02-18T08:25:24;92631.75;;;7.03;57.31
10958;BME280;5531;42.570;23.676;2023-02-18T08:27:53;92631.63;;;7.13;56.97
10958;BME280;5531;42.570;23.676;2023-02-18T08:30:22;92617.47;;;7.24;56.22
10958;BME280;5531;42.570;23.676;2023-02-18T08:32:51;92617.81;;;7.37;55.74
10958;BME280;5531;42.570;23.676;2023-02-18T08:35:20;92609.97;;;7.53;54.32
10958;BME280;5531;42.570;23.676;2023-02-18T08:37:49;92623.19;;;7.60;53.51
10958;BME280;5531;42.570;23.676;2023-02-18T08:40:18;92622.69;;;7.65;53.87
10958;BME280;5531;42.570;23.676;2023-02-18T08:42:50;92621.03;;;7.80;53.71
10958;BME280;5531;42.570;23.676;2023-02-18T08:45:19;92620.03;;;7.98;53.48
10958;BME280;5531;42.570;23.676;2023-02-18T08:47:48;92614.47;;;8.09;52.95
10958;BME280;5531;42.570;23.676;2023-02-18T08:50:17;92612.50;;;8.19;52.74
10958;BME280;5531;42.570;23.676;2023-02-18T08:52:51;92608.56;;;8.32;52.18
10958;BME280;5531;42.570;23.676;2023-02-18T08:55:20;92608.78;;;8.61;54.11
10958;BME280;5531;42.570;23.676;2023-02-18T08:57:52;92608.06;;;8.76;52.23
10958;BME280;5531;42.570;23.676;2023-02-18T09:00:21;92606.56;;;8.81;50.96
10958;BME280;5531;42.570;23.676;2023-02-18T09:02:50;92617.19;;;8.88;50.40
10958;BME280;5531;42.570;23.676;2023-02-18T09:05:19;92614.94;;;8.77;50.52
10958;BME280;5531;42.570;23.676;2023-02-18T09:07:49;92625.91;;;8.72;50.45
10958;BME280;5531;42.570;23.676;2023-02-18T09:10:18;92623.91;;;8.74;52.02
10958;BME280;5531;42.570;23.676;2023-02-18T09:12:47;92623.41;;;8.79;52.02
10958;BME280;5531;42.570;23.676;2023-02-18T09:15:18;92626.06;;;8.71;52.83
10958;BME280;5531;42.570;23.676;2023-02-18T09:17:48;92632.63;;;8.58;52.95
10958;BME280;5531;42.570;23.676;2023-02-18T09:20:17;92630.22;;;8.49;52.88
10958;BME280;5531;42.570;23.676;2023-02-18T09:22:46;92631.22;;;8.48;53.84
10958;BME280;5531;42.570;23.676;2023-02-18T09:25:15;92634.00;;;8.38;53.57
10958;BME280;5531;42.570;23.676;2023-02-18T09:27:44;92630.38;;;8.39;54.16
10958;BME280;5531;42.570;23.676;2023-02-18T09:30:14;92632.03;;;8.40;52.88
10958;BME280;5531;42.570;23.676;2023-02-18T09:32:45;92637.59;;;8.45;54.74
10958;BME280;5531;42.570;23.676;2023-02-18T09:35:14;92630.19;;;8.57;53.55
10958;BME280;5531;42.570;23.676;2023-02-18T09:37:43;92629.50;;;8.63;52.16
10958;BME280;5531;42.570;23.676;2023-02-18T09:40:22;92615.66;;;8.62;51.67
10958;BME280;5531;42.570;23.676;2023-02-18T09:42:54;92609.25;;;8.65;51.12
10958;BME280;5531;42.570;23.676;2023-02-18T09:45:24;92598.31;;;8.70;51.88
10958;BME280;5531;42.570;23.676;2023-02-18T09:47:56;92611.25;;;8.63;51.22
10958;BME280;5531;42.570;23.676;2023-02-18T09:50:28;92614.97;;;8.69;50.97
10958;BME280;5531;42.570;23.676;2023-02-18T09:52:58;92610.69;;;8.76;51.28
10958;BME280;5531;42.570;23.676;2023-02-18T09:55:30;92611.00;;;8.81;52.18
10958;BME280;5531;42.570;23.676;2023-02-18T09:58:02;92609.69;;;8.85;52.15
10958;BME280;5531;42.570;23.676;2023-02-18T10:00:35;92605.91;;;9.11;53.01
10958;BME280;5531;42.570;23.676;2023-02-18T10:03:12;92610.41;;;9.25;51.79
10958;BME280;5531;42.570;23.676;2023-02-18T10:05:51;92612.38;;;9.23;51.74
10958;BME280;5531;42.570;23.676;2023-02-18T10:08:25;92609.84;;;9.38;50.73
10958;BME280;5531;42.570;23.676;2023-02-18T10:10:55;92625.75;;;9.51;50.26
10958;BME280;5531;42.570;23.676;2023-02-18T10:13:27;92608.91;;;9.54;50.39
10958;BME280;5531;42.570;23.676;2023-02-18T10:15:58;92617.72;;;9.53;49.50
10958;BME280;5531;42.570;23.676;2023-02-18T10:18:31;92607.44;;;9.51;50.81
10958;BME280;5531;42.570;23.676;2023-02-18T10:21:05;92603.91;;;9.44;52.43
10958;BME280;5531;42.570;23.676;2023-02-18T10:23:38;92592.59;;;9.52;50.30
10958;BME280;5531;42.570;23.676;2023-02-18T10:26:12;92594.78;;;9.63;50.47
10958;BME280;5531;42.570;23.676;2023-02-18T10:28:43;92587.66;;;9.72;50.19
10958;BME280;5531;42.570;23.676;2023-02-18T10:31:19;92593.69;;;9.72;49.67
10958;BME280;5531;42.570;23.676;2023-02-18T10:33:58;92590.31;;;9.87;50.02
10958;BME280;5531;42.570;23.676;2023-02-18T10:36:33;92584.91;;;9.88;49.96
10958;BME280;5531;42.570;23.676;2023-02-18T10:39:31;92587.50;;;9.88;49.17
10958;BME280;5531;42.570;23.676;2023-02-18T10:42:14;92577.94;;;9.81;49.82
10958;BME280;5531;42.570;23.676;2023-02-18T10:44:57;92574.06;;;9.77;51.45
10958;BME280;5531;42.570;23.676;2023-02-18T10:47:36;92591.28;;;9.86;50.35
10958;BME280;5531;42.570;23.676;2023-02-18T10:50:18;92582.09;;;9.90;51.30
10958;BME280;5531;42.570;23.676;2023-02-18T10:52:55;92584.66;;;9.98;49.79
10958;BME280;5531;42.570;23.676;2023-02-18T10:55:35;92584.81;;;10.12;50.41
10958;BME280;5531;42.570;23.676;2023-02-18T10:58:25;92572.94;;;10.24;50.51
10958;BME280;5531;42.570;23.676;2023-02-18T11:00:54;92565.00;;;10.32;50.15
10958;BME280;5531;42.570;23.676;2023-02-18T11:03:24;92567.34;;;10.42;48.85
10958;BME280;5531;42.570;23.676;2023-02-18T11:05:58;92552.69;;;10.62;48.11
10958;BME280;5531;42.570;23.676;2023-02-18T11:08:29;92561.34;;;10.78;48.39
10958;BME280;5531;42.570;23.676;2023-02-18T11:11:09;92561.75;;;10.96;46.67
10958;BME280;5531;42.570;23.676;2023-02-18T11:13:42;92566.31;;;11.09;45.56
10958;BME280;5531;42.570;23.676;2023-02-18T11:16:11;92558.44;;;11.09;46.80
10958;BME280;5531;42.570;23.676;2023-02-18T11:18:43;92556.66;;;11.31;46.53
10958;BME280;5531;42.570;23.676;2023-02-18T11:21:28;92554.84;;;11.32;45.48
10958;BME280;5531;42.570;23.676;2023-02-18T11:24:07;92555.09;;;11.37;45.85
10958;BME280;5531;42.570;23.676;2023-02-18T11:26:38;92554.34;;;11.43;46.37
10958;BME280;5531;42.570;23.676;2023-02-18T11:29:18;92539.53;;;11.35;45.79
10958;BME280;5531;42.570;23.676;2023-02-18T11:31:50;92534.41;;;11.49;45.09
10958;BME280;5531;42.570;23.676;2023-02-18T11:34:22;92532.19;;;11.46;45.70
10958;BME280;5531;42.570;23.676;2023-02-18T11:37:09;92526.41;;;11.57;45.36
10958;BME280;5531;42.570;23.676;2023-02-18T11:39:43;92525.59;;;11.56;45.55
10958;BME280;5531;42.570;23.676;2023-02-18T11:42:14;92517.66;;;11.78;45.19
10958;BME280;5531;42.570;23.676;2023-02-18T11:44:49;92503.78;;;11.84;45.34
10958;BME280;5531;42.570;23.676;2023-02-18T11:47:23;92510.22;;;12.03;45.87
10958;BME280;5531;42.570;23.676;2023-02-18T11:50:03;92509.94;;;12.26;47.87
10958;BME280;5531;42.570;23.676;2023-02-18T11:52:37;92498.50;;;12.47;43.91
10958;BME280;5531;42.570;23.676;2023-02-18T11:55:14;92505.06;;;12.65;42.19
10958;BME280;5531;42.570;23.676;2023-02-18T11:57:45;92489.69;;;12.69;43.35
10958;BME280;5531;42.570;23.676;2023-02-18T12:00:21;92486.28;;;12.81;42.55
10958;BME280;5531;42.570;23.676;2023-02-18T12:02:52;92488.94;;;12.81;41.93
10958;BME280;5531;42.570;23.676;2023-02-18T12:05:25;92475.53;;;12.63;41.63
10958;BME280;5531;42.570;23.676;2023-02-18T12:08:02;92484.00;;;12.58;40.83
10958;BME280;5531;42.570;23.676;2023-02-18T12:10:35;92474.69;;;12.56;42.64
10958;BME280;5531;42.570;23.676;2023-02-18T12:13:11;92475.31;;;12.64;42.68
10958;BME280;5531;42.570;23.676;2023-02-18T12:15:52;92470.66;;;12.60;42.13
10958;BME280;5531;42.570;23.676;2023-02-18T12:19:00;92467.66;;;12.70;42.79
10958;BME280;5531;42.570;23.676;2023-02-18T12:21:38;92464.66;;;12.79;42.82
10958;BME280;5531;42.570;23.676;2023-02-18T12:24:21;92466.47;;;12.92;42.94
10958;BME280;5531;42.570;23.676;2023-02-18T12:27:00;92458.00;;;13.03;42.61
10958;BME280;5531;42.570;23.676;2023-02-18T12:29:44;92450.75;;;13.06;42.43
10958;BME280;5531;42.570;23.676;2023-02-18T12:32:26;92453.56;;;12.97;42.97
10958;BME280;5531;42.570;23.676;2023-02-18T12:35:21;92457.59;;;13.00;40.96
10958;BME280;5531;42.570;23.676;2023-02-18T12:38:13;92455.97;;;12.92;42.08
10958;BME280;5531;42.570;23.676;2023-02-18T12:41:04;92444.84;;;13.03;41.17
10958;BME280;5531;42.570;23.676;2023-02-18T12:43:43;92445.03;;;12.95;41.07
10958;BME280;5531;42.570;23.676;2023-02-18T12:46:40;92445.63;;;12.84;41.67
10958;BME280;5531;42.570;23.676;2023-02-18T12:49:44;92434.50;;;12.75;41.26
10958;BME280;5531;42.570;23.676;2023-02-18T12:52:25;92430.84;;;12.70;41.93
10958;BME280;5531;42.570;23.676;2023-02-18T12:55:20;92437.34;;;12.87;41.22
10958;BME280;5531;42.570;23.676;2023-02-18T12:58:01;92423.81;;;12.97;42.02
10958;BME280;5531;42.570;23.676;2023-02-18T13:01:03;92429.91;;;13.04;42.47
10958;BME280;5531;42.570;23.676;2023-02-18T13:09:48;92412.72;;;13.42;41.38
10958;BME280;5531;42.570;23.676;2023-02-18T13:12:24;92411.72;;;13.49;41.70
10958;BME280;5531;42.570;23.676;2023-02-18T13:15:03;92417.75;;;13.70;41.51
10958;BME280;5531;42.570;23.676;2023-02-18T13:17:36;92416.31;;;13.81;40.47
10958;BME280;5531;42.570;23.676;2023-02-18T13:20:15;92409.00;;;13.89;40.27
10958;BME280;5531;42.570;23.676;2023-02-18T13:22:47;92421.16;;;13.90;39.37
10958;BME280;5531;42.570;23.676;2023-02-18T13:25:18;92429.69;;;13.86;39.84
10958;BME280;5531;42.570;23.676;2023-02-18T13:27:54;92423.59;;;13.85;40.71
10958;BME280;5531;42.570;23.676;2023-02-18T13:30:35;92417.91;;;13.95;40.42
10958;BME280;5531;42.570;23.676;2023-02-18T13:33:13;92421.75;;;13.92;40.44
10958;BME280;5531;42.570;23.676;2023-02-18T13:35:47;92422.78;;;13.85;40.02
10958;BME280;5531;42.570;23.676;2023-02-18T13:38:48;92418.56;;;13.70;40.08
10958;BME280;5531;42.570;23.676;2023-02-18T13:41:21;92418.97;;;13.61;40.52
10958;BME280;5531;42.570;23.676;2023-02-18T13:43:50;92423.63;;;13.59;40.33
10958;BME280;5531;42.570;23.676;2023-02-18T13:46:23;92415.75;;;13.59;40.95
10958;BME280;5531;42.570;23.676;2023-02-18T13:48:54;92415.34;;;13.48;40.87
10958;BME280;5531;42.570;23.676;2023-02-18T13:51:33;92409.69;;;13.45;41.51
10958;BME280;5531;42.570;23.676;2023-02-18T13:54:16;92400.59;;;13.34;41.34